createdAt,value
2018-02-08T00:02:14.525Z,61.97
2018-02-08T00:04:40.879Z,61.25
2018-02-08T00:07:06.829Z,62.75
2018-02-08T00:09:32.910Z,65.43
2018-02-08T00:11:58.958Z,62.30
2018-02-08T00:14:25.130Z,66.87
2018-02-08T00:16:52.091Z,64.57
2018-02-08T00:19:18.173Z,63.20
2018-02-08T00:21:44.120Z,66.15
2018-02-08T00:24:10.186Z,67.27
2018-02-08T00:26:36.251Z,61.67
2018-02-08T00:29:02.306Z,62.72
2018-02-08T00:31:28.299Z,59.80
2018-02-08T00:33:54.297Z,64.40
2018-02-08T00:36:20.834Z,64.05
2018-02-08T00:38:46.772Z,67.28
2018-02-08T00:41:12.762Z,66.27
2018-02-08T00:43:38.766Z,65.57
2018-02-08T00:46:04.742Z,63.95
2018-02-08T00:48:30.803Z,59.10
2018-02-08T00:50:56.812Z,66.45
2018-02-08T00:53:22.816Z,65.10
2018-02-08T00:55:48.866Z,68.75
2018-02-08T00:58:14.810Z,59.97
2018-02-08T01:00:42.358Z,65.27
2018-02-08T01:03:08.320Z,68.95
2018-02-08T01:05:34.339Z,62.20
2018-02-08T01:08:00.365Z,63.33
2018-02-08T01:10:26.331Z,65.85
2018-02-08T01:12:52.300Z,65.87
2018-02-08T01:15:18.306Z,68.77
2018-02-08T01:17:44.273Z,64.10
2018-02-08T01:20:10.547Z,65.13
2018-02-08T01:22:37.312Z,59.40
2018-02-08T01:25:03.441Z,67.78
2018-02-08T01:27:29.445Z,65.37
2018-02-08T01:29:56.263Z,58.97
2018-02-08T01:32:22.246Z,60.70
2018-02-08T01:34:48.263Z,64.50
2018-02-08T01:37:14.341Z,59.92
2018-02-08T01:39:40.416Z,71.87
2018-02-08T01:42:07.185Z,62.55
2018-02-08T01:44:34.004Z,64.65
2018-02-08T01:46:59.994Z,63.65
2018-02-08T01:49:45.718Z,65.10
2018-02-08T01:52:11.676Z,63.47
2018-02-08T01:54:37.637Z,65.77
2018-02-08T01:57:04.402Z,66.70
2018-02-08T01:59:30.455Z,68.43
2018-02-08T02:01:56.483Z,69.07
2018-02-08T02:04:23.269Z,74.60
2018-02-08T02:06:49.196Z,67.25
2018-02-08T02:09:15.168Z,68.93
2018-02-08T02:11:41.226Z,66.73
2018-02-08T02:14:07.190Z,62.25
2018-02-08T02:16:33.390Z,65.10
2018-02-08T02:18:59.474Z,73.65
2018-02-08T02:21:25.625Z,64.28
2018-02-08T02:23:55.476Z,66.32
2018-02-08T02:26:21.472Z,71.82
2018-02-08T02:28:47.704Z,69.12
2018-02-08T02:31:13.708Z,67.87
2018-02-08T02:33:39.726Z,68.20
2018-02-08T02:36:05.828Z,65.78
2018-02-08T02:38:31.950Z,68.50
2018-02-08T02:40:58.000Z,67.10
2018-02-08T02:43:24.128Z,67.87
2018-02-08T02:45:50.164Z,67.85
2018-02-08T02:48:16.176Z,64.30
2018-02-08T02:50:42.181Z,69.20
2018-02-08T02:53:08.921Z,68.60
2018-02-08T02:55:35.077Z,66.35
2018-02-08T02:58:01.147Z,60.72
2018-02-08T03:00:27.943Z,73.53
2018-02-08T03:02:54.152Z,68.65
2018-02-08T03:05:20.172Z,67.00
2018-02-08T03:07:46.185Z,73.18
2018-02-08T03:10:12.550Z,73.82
2018-02-08T03:12:38.525Z,63.58
2018-02-08T03:15:05.008Z,62.67
2018-02-08T03:17:31.202Z,70.75
2018-02-08T03:19:57.238Z,66.50
2018-02-08T03:22:23.198Z,65.28
2018-02-08T03:24:49.171Z,71.40
2018-02-08T03:27:16.114Z,66.80
2018-02-08T03:29:42.138Z,67.62
2018-02-08T03:32:08.161Z,67.30
2018-02-08T03:34:34.209Z,58.90
2018-02-08T03:37:00.193Z,67.53
2018-02-08T03:39:26.235Z,79.63
2018-02-08T03:41:52.263Z,73.85
2018-02-08T03:44:18.348Z,75.12
2018-02-08T03:46:45.109Z,68.65
2018-02-08T03:49:11.156Z,72.28
2018-02-08T03:51:37.142Z,73.18
2018-02-08T03:54:03.177Z,66.57
2018-02-08T03:56:29.150Z,71.75
2018-02-08T03:58:55.123Z,77.20
2018-02-08T04:01:21.139Z,64.80
2018-02-08T04:03:47.092Z,72.12
2018-02-08T04:06:13.176Z,67.60
2018-02-08T04:08:39.438Z,65.80
2018-02-08T04:11:05.535Z,74.82
2018-02-08T04:13:32.289Z,69.57
2018-02-08T04:15:58.309Z,67.65
2018-02-08T04:18:24.331Z,76.40
2018-02-08T04:20:50.410Z,70.05
2018-02-08T04:23:16.457Z,69.40
2018-02-08T04:25:42.542Z,71.25
2018-02-08T04:28:08.830Z,71.37
2018-02-08T04:30:35.686Z,73.97
2018-02-08T04:33:01.758Z,63.22
2018-02-08T04:35:27.654Z,65.62
2018-02-08T04:37:53.643Z,68.20
2018-02-08T04:40:31.866Z,71.32
2018-02-08T04:43:10.894Z,71.30
2018-02-08T04:45:49.209Z,68.12
2018-02-08T04:48:15.340Z,73.25
2018-02-08T04:50:41.361Z,78.65
2018-02-08T04:53:07.365Z,67.50
2018-02-08T04:55:33.318Z,69.65
2018-02-08T04:57:59.333Z,69.20
2018-02-08T05:00:25.317Z,65.32
2018-02-08T05:02:52.071Z,68.37
2018-02-08T05:05:18.108Z,76.65
2018-02-08T05:07:44.125Z,72.60
2018-02-08T05:10:10.584Z,69.22
2018-02-08T05:12:36.633Z,68.70
2018-02-08T05:15:02.862Z,65.53
2018-02-08T05:17:29.579Z,66.18
2018-02-08T05:19:55.631Z,72.97
2018-02-08T05:22:23.157Z,69.90
2018-02-08T05:24:49.282Z,66.55
2018-02-08T05:27:15.275Z,69.35
2018-02-08T05:29:41.339Z,74.20
2018-02-08T05:34:39.929Z,66.93
2018-02-08T05:37:05.909Z,71.18
2018-02-08T05:39:31.869Z,70.53
2018-02-08T05:41:57.962Z,72.93
2018-02-08T05:44:24.988Z,76.05
2018-02-08T05:46:51.006Z,65.05
2018-02-08T05:49:17.337Z,67.12
2018-02-08T05:51:43.302Z,69.60
2018-02-08T05:54:09.266Z,73.80
2018-02-08T05:56:36.927Z,69.27
2018-02-08T05:59:03.653Z,67.90
2018-02-08T06:01:30.259Z,72.05
2018-02-08T06:03:56.280Z,76.10
2018-02-08T06:06:22.471Z,70.53
2018-02-08T06:08:48.711Z,77.68
2018-02-08T06:11:14.707Z,74.30
2018-02-08T06:13:41.439Z,67.75
2018-02-08T06:16:08.253Z,69.68
2018-02-08T06:18:34.617Z,72.28
2018-02-08T06:23:32.855Z,67.75
2018-02-08T06:25:59.506Z,63.33
2018-02-08T06:28:26.263Z,72.72
2018-02-08T06:30:53.494Z,62.80
2018-02-08T06:33:19.522Z,74.62
2018-02-08T06:35:45.531Z,88.22
2018-02-08T06:38:11.789Z,75.12
2018-02-08T06:40:37.846Z,78.30
2018-02-08T06:43:03.867Z,78.45
2018-02-08T06:45:29.868Z,72.18
2018-02-08T06:47:55.921Z,72.37
2018-02-08T06:50:21.892Z,68.18
2018-02-08T06:52:47.855Z,76.10
2018-02-08T06:55:13.999Z,76.43
2018-02-08T06:57:41.887Z,74.25
2018-02-08T07:00:07.838Z,66.15
2018-02-08T07:02:33.888Z,62.67
2018-02-08T07:04:59.863Z,69.35
2018-02-08T07:07:25.811Z,74.57
2018-02-08T07:09:51.935Z,73.07
2018-02-08T07:12:17.923Z,77.18
2018-02-08T07:14:43.894Z,73.50
2018-02-08T07:17:10.596Z,73.27
2018-02-08T07:19:37.064Z,75.20
2018-02-08T07:22:03.143Z,79.25
2018-02-08T07:24:30.229Z,79.07
2018-02-08T07:26:56.305Z,73.95
2018-02-08T07:29:25.665Z,72.40
2018-02-08T07:31:52.541Z,70.97
2018-02-08T07:34:18.656Z,72.40
2018-02-08T07:36:44.641Z,72.80
2018-02-08T07:39:10.789Z,74.90
2018-02-08T07:41:36.973Z,77.87
2018-02-08T07:44:03.190Z,79.43
2018-02-08T07:46:29.180Z,82.55
2018-02-08T07:48:55.670Z,73.50
2018-02-08T07:51:21.827Z,78.07
2018-02-08T07:53:47.850Z,77.57
2018-02-08T07:56:13.923Z,78.28
2018-02-08T07:58:40.868Z,74.22
2018-02-08T08:01:07.169Z,71.53
2018-02-08T08:03:33.173Z,80.97
2018-02-08T08:05:59.296Z,72.62
2018-02-08T08:08:25.372Z,70.80
2018-02-08T08:10:52.013Z,71.78
2018-02-08T08:13:17.988Z,72.80
2018-02-08T08:15:44.877Z,78.17
2018-02-08T08:18:10.847Z,79.53
2018-02-08T08:20:37.129Z,73.53
2018-02-08T08:23:03.223Z,71.62
2018-02-08T08:25:31.068Z,78.07
2018-02-08T08:27:57.249Z,74.65
2018-02-08T08:30:23.266Z,74.35
2018-02-08T08:32:49.518Z,76.57
2018-02-08T08:35:15.576Z,67.87
2018-02-08T08:37:42.226Z,71.95
2018-02-08T08:40:08.207Z,82.53
2018-02-08T08:42:34.174Z,75.27
2018-02-08T08:45:00.207Z,69.20
2018-02-08T08:47:26.201Z,69.45
2018-02-08T08:49:52.170Z,79.05
2018-02-08T08:52:18.931Z,84.07
2018-02-08T08:54:44.920Z,69.28
2018-02-08T08:57:11.009Z,74.70
2018-02-08T08:59:37.012Z,79.87
2018-02-08T09:02:03.095Z,73.40
2018-02-08T09:04:29.153Z,70.90
2018-02-08T09:06:56.017Z,72.40
2018-02-08T09:09:21.989Z,77.43
2018-02-08T09:11:49.082Z,83.60
2018-02-08T09:14:16.801Z,72.20
2018-02-08T09:16:43.484Z,84.62
2018-02-08T09:19:12.112Z,76.30
2018-02-08T09:21:38.151Z,76.30
2018-02-08T09:24:05.770Z,84.32
2018-02-08T09:26:32.416Z,80.62
2018-02-08T09:28:59.813Z,77.82
2018-02-08T09:31:25.870Z,74.57
2018-02-08T09:33:52.557Z,77.20
2018-02-08T09:36:18.642Z,80.68
2018-02-08T09:38:44.951Z,81.78
2018-02-08T09:41:11.661Z,77.03
2018-02-08T09:43:37.745Z,77.68
2018-02-08T09:46:04.198Z,91.68
2018-02-08T09:48:30.360Z,82.25
2018-02-08T09:50:56.503Z,74.82
2018-02-08T09:53:23.334Z,80.32
2018-02-08T09:55:49.620Z,87.45
2018-02-08T09:58:15.600Z,84.10
2018-02-08T10:00:41.604Z,79.10
2018-02-08T10:03:07.674Z,83.12
2018-02-08T10:05:34.668Z,84.90
2018-02-08T10:08:01.316Z,85.55
2018-02-08T10:10:28.431Z,78.65
2018-02-08T10:12:56.173Z,82.75
2018-02-08T10:15:23.010Z,80.32
2018-02-08T10:17:49.835Z,77.18
2018-02-08T10:20:15.807Z,83.28
2018-02-08T10:22:42.596Z,75.20
2018-02-08T10:25:08.595Z,88.82
2018-02-08T10:27:34.629Z,82.85
2018-02-08T10:30:00.584Z,88.47
2018-02-08T10:32:26.668Z,96.57
2018-02-08T10:34:52.646Z,80.68
2018-02-08T10:37:21.983Z,80.30
2018-02-08T10:39:47.994Z,84.68
2018-02-08T10:42:13.959Z,82.60
2018-02-08T10:44:40.526Z,88.40
2018-02-08T10:47:06.683Z,83.07
2018-02-08T10:49:32.699Z,89.13
2018-02-08T10:51:58.659Z,93.15
2018-02-08T10:54:25.341Z,88.23
2018-02-08T10:56:51.483Z,89.70
2018-02-08T10:59:17.630Z,84.20
2018-02-08T11:01:43.626Z,83.12
2018-02-08T11:04:09.611Z,98.30
2018-02-08T11:06:36.498Z,92.83
2018-02-08T11:09:03.793Z,80.43
2018-02-08T11:11:29.825Z,84.93
2018-02-08T11:13:56.726Z,90.43
2018-02-08T11:16:23.397Z,89.13
2018-02-08T11:18:50.407Z,81.63
2018-02-08T11:21:16.439Z,94.55
2018-02-08T11:23:42.385Z,88.80
2018-02-08T11:26:08.511Z,95.10
2018-02-08T11:28:35.347Z,89.30
2018-02-08T11:31:01.527Z,86.93
2018-02-08T11:33:27.552Z,85.70
2018-02-08T11:35:54.575Z,82.93
2018-02-08T11:38:21.551Z,96.55
2018-02-08T11:40:47.642Z,87.15
2018-02-08T11:43:13.753Z,88.95
2018-02-08T11:45:39.781Z,91.68
2018-02-08T11:48:05.892Z,88.97
2018-02-08T11:50:31.843Z,93.32
2018-02-08T11:52:58.917Z,88.73
2018-02-08T11:55:24.865Z,79.72
2018-02-08T11:57:51.967Z,87.73
2018-02-08T12:00:20.942Z,98.82
2018-02-08T12:02:46.909Z,91.50
2018-02-08T12:05:12.915Z,94.23
2018-02-08T12:07:38.898Z,84.78
2018-02-08T12:10:04.978Z,80.43
2018-02-08T12:12:31.237Z,84.82
2018-02-08T12:14:57.998Z,84.62
2018-02-08T12:17:24.048Z,85.70
2018-02-08T12:19:51.677Z,95.25
2018-02-08T12:22:17.682Z,100.87
2018-02-08T12:24:43.952Z,86.25
2018-02-08T12:27:09.941Z,83.55
2018-02-08T12:29:35.942Z,81.55
2018-02-08T12:32:01.980Z,93.43
2018-02-08T12:34:28.119Z,92.90
2018-02-08T12:36:56.107Z,88.35
2018-02-08T12:39:23.139Z,92.75
2018-02-08T12:41:49.201Z,87.57
2018-02-08T12:44:15.255Z,90.70
2018-02-08T12:46:41.295Z,86.97
2018-02-08T12:49:07.263Z,91.93
2018-02-08T12:51:34.338Z,87.73
2018-02-08T12:54:00.606Z,92.68
2018-02-08T12:56:26.935Z,87.12
2018-02-08T12:58:53.249Z,87.12
2018-02-08T13:01:19.359Z,89.97
2018-02-08T13:03:45.682Z,93.28
2018-02-08T13:06:11.782Z,96.78
2018-02-08T13:08:37.926Z,99.55
2018-02-08T13:11:03.982Z,87.35
2018-02-08T13:13:30.903Z,83.87
2018-02-08T13:15:57.049Z,103.00
2018-02-08T13:18:23.587Z,92.95
2018-02-08T13:20:50.239Z,84.93
2018-02-08T13:23:16.367Z,96.30
2018-02-08T13:25:42.385Z,91.37
2018-02-08T13:28:08.619Z,88.05
2018-02-08T13:30:35.884Z,90.65
2018-02-08T13:33:02.282Z,94.32
2018-02-08T13:35:29.124Z,100.40
2018-02-08T13:37:55.177Z,89.05
2018-02-08T13:40:26.013Z,93.00
2018-02-08T13:42:53.593Z,94.65
2018-02-08T13:45:26.914Z,87.47
2018-02-08T13:48:07.978Z,99.03
2018-02-08T13:53:29.321Z,91.75
2018-02-08T13:56:11.961Z,87.18
2018-02-08T13:58:44.464Z,94.17
2018-02-08T14:01:17.844Z,116.23
2018-02-08T14:03:52.220Z,97.03
2018-02-08T14:06:20.565Z,91.43
2018-02-08T14:08:47.139Z,87.22
2018-02-08T14:11:13.248Z,91.63
2018-02-08T14:13:39.306Z,101.53
2018-02-08T14:16:07.943Z,93.40
2018-02-08T14:18:34.932Z,99.07
2018-02-08T14:21:01.396Z,101.47
2018-02-08T14:23:31.068Z,107.82
2018-02-08T14:25:58.323Z,93.85
2018-02-08T14:28:25.301Z,101.65
2018-02-08T14:30:52.101Z,126.15
2018-02-08T14:33:18.128Z,102.95
2018-02-08T14:35:45.836Z,95.43
2018-02-08T14:38:12.091Z,104.05
2018-02-08T14:40:39.523Z,90.87
2018-02-08T14:43:07.911Z,103.78
2018-02-08T14:45:35.823Z,89.57
2018-02-08T14:48:07.362Z,98.95
2018-02-08T14:50:35.451Z,93.55
2018-02-08T14:53:01.563Z,108.20
2018-02-08T14:55:31.344Z,101.78
2018-02-08T14:57:58.053Z,102.00
2018-02-08T15:00:26.268Z,100.43
2018-02-08T15:02:52.965Z,102.80
2018-02-08T15:05:21.259Z,94.13
2018-02-08T15:07:47.348Z,99.03
2018-02-08T15:10:14.316Z,109.10
2018-02-08T15:12:45.249Z,101.68
2018-02-08T15:22:52.702Z,115.28
2018-02-08T15:25:21.939Z,111.55
2018-02-08T15:30:30.994Z,117.93
2018-02-08T15:32:58.124Z,112.93
2018-02-08T15:37:58.334Z,103.38
2018-02-08T15:42:56.811Z,102.65
2018-02-08T15:45:23.699Z,105.53
2018-02-08T15:55:39.670Z,103.80
2018-02-08T16:00:40.993Z,100.78
2018-02-08T16:03:09.995Z,123.75
2018-02-08T16:05:37.379Z,97.12
2018-02-08T16:08:03.855Z,104.60
2018-02-08T16:10:32.115Z,99.50
2018-02-08T16:15:30.553Z,115.55
2018-02-08T16:17:58.402Z,99.68
2018-02-08T16:20:24.699Z,98.68
2018-02-08T16:22:51.988Z,115.82
2018-02-08T16:25:18.414Z,101.07
2018-02-08T16:27:45.311Z,102.95
2018-02-08T16:30:11.416Z,99.10
2018-02-08T16:32:38.412Z,105.15
2018-02-08T16:35:04.465Z,116.05
2018-02-08T16:37:30.567Z,113.20
2018-02-08T16:39:56.659Z,103.07
2018-02-08T16:42:22.862Z,109.60
2018-02-08T16:44:50.168Z,114.62
2018-02-08T16:47:18.111Z,110.90
2018-02-08T16:49:45.049Z,100.50
2018-02-08T16:52:11.144Z,105.70
2018-02-08T16:54:37.174Z,101.57
2018-02-08T16:57:03.416Z,102.62
2018-02-08T16:59:29.577Z,102.53
2018-02-08T17:01:58.141Z,108.40
2018-02-08T17:04:24.289Z,101.45
2018-02-08T17:06:50.388Z,106.85
2018-02-08T17:09:16.553Z,97.65
2018-02-08T17:14:13.267Z,101.18
2018-02-08T17:16:39.273Z,113.90
2018-02-08T17:19:05.211Z,107.17
2018-02-08T17:21:31.378Z,103.90
2018-02-08T17:23:57.443Z,106.75
2018-02-08T17:26:24.094Z,105.82
2018-02-08T17:28:50.253Z,102.75
2018-02-08T17:31:16.283Z,111.35
2018-02-08T17:33:43.120Z,106.32
2018-02-08T17:36:16.199Z,105.82
2018-02-08T17:38:42.213Z,105.90
2018-02-08T17:41:10.204Z,109.65
2018-02-08T17:43:37.413Z,112.47
2018-02-08T17:48:40.684Z,99.37
2018-02-08T17:51:07.568Z,109.55
2018-02-08T17:53:36.315Z,104.95
2018-02-08T17:59:15.815Z,98.07
2018-02-08T18:01:46.903Z,105.10
2018-02-08T18:04:15.611Z,119.43
2018-02-08T18:06:43.195Z,113.30
2018-02-08T18:09:12.918Z,112.37
2018-02-08T18:11:40.123Z,98.05
2018-02-08T18:14:07.058Z,154.27
2018-02-08T18:16:34.683Z,110.07
2018-02-08T18:19:03.295Z,96.12
2018-02-08T18:21:29.840Z,108.28
2018-02-08T18:26:34.182Z,103.32
2018-02-08T18:29:03.484Z,105.07
2018-02-08T18:31:29.598Z,102.25
2018-02-08T18:33:55.708Z,104.03
2018-02-08T18:36:21.732Z,109.05
2018-02-08T18:38:48.172Z,131.55
2018-02-08T18:43:50.172Z,138.30
2018-02-08T18:46:20.776Z,113.95
2018-02-08T18:48:49.951Z,119.62
2018-02-08T18:51:16.934Z,121.43
2018-02-08T18:53:45.922Z,125.25
2018-02-08T18:56:12.343Z,104.70
2018-02-08T18:58:38.442Z,107.97
2018-02-08T19:01:06.347Z,115.70
2018-02-08T19:03:32.704Z,116.82
2018-02-08T19:08:32.032Z,124.22
2018-02-08T19:10:58.206Z,122.35
2018-02-08T19:13:24.751Z,121.07
2018-02-08T19:15:53.657Z,102.07
2018-02-08T19:18:20.693Z,119.10
2018-02-08T19:20:47.699Z,110.05
2018-02-08T19:23:15.883Z,107.50
2018-02-08T19:28:18.146Z,110.30
2018-02-08T19:30:45.914Z,110.57
2018-02-08T19:33:12.089Z,107.05
2018-02-08T19:35:40.270Z,120.32
2018-02-08T19:38:06.357Z,113.15
2018-02-08T19:40:32.488Z,114.45
2018-02-08T19:43:00.538Z,115.25
2018-02-08T19:45:28.439Z,104.32
2018-02-08T19:48:00.128Z,115.35
2018-02-08T19:50:31.616Z,102.10
2018-02-08T19:58:09.007Z,114.30
2018-02-08T20:00:40.860Z,103.80
2018-02-08T20:03:09.979Z,114.85
2018-02-08T20:05:39.877Z,121.10
2018-02-08T20:08:07.971Z,118.72
2018-02-08T20:13:10.792Z,103.55
2018-02-08T20:18:13.256Z,119.18
2018-02-08T20:20:39.771Z,107.75
2018-02-08T20:23:10.551Z,125.05
2018-02-08T20:25:41.462Z,120.43
2018-02-08T20:28:08.489Z,123.85
2018-02-08T20:30:37.144Z,124.55
2018-02-08T20:35:37.444Z,119.97
2018-02-08T20:38:04.392Z,126.32
2018-02-08T20:40:32.519Z,125.80
2018-02-08T20:43:06.120Z,120.35
2018-02-08T20:45:40.557Z,118.45
2018-02-08T20:48:07.112Z,105.18
2018-02-08T20:50:33.618Z,109.57
2018-02-08T20:53:01.861Z,120.22
2018-02-08T20:55:28.954Z,117.43
2018-02-08T20:57:56.724Z,120.40
2018-02-08T21:00:25.872Z,106.20
2018-02-08T21:02:52.267Z,115.60
2018-02-08T21:05:20.382Z,108.50
2018-02-08T21:07:46.465Z,114.97
2018-02-08T21:10:13.785Z,113.43
2018-02-08T21:12:39.818Z,118.03
2018-02-08T21:15:06.785Z,122.07
2018-02-08T21:17:32.799Z,114.28
2018-02-08T21:19:59.954Z,118.40
2018-02-08T21:22:29.158Z,111.53
2018-02-08T21:24:58.135Z,111.97
2018-02-08T21:29:59.461Z,112.68
2018-02-08T21:32:27.584Z,117.93
2018-02-08T21:34:55.312Z,117.72
2018-02-08T21:37:22.173Z,115.12
2018-02-08T21:39:54.574Z,107.22
2018-02-08T21:42:20.890Z,112.80
2018-02-08T21:44:49.071Z,114.88
2018-02-08T21:47:15.442Z,120.00
2018-02-08T21:49:42.161Z,128.18
2018-02-08T21:52:10.484Z,121.40
2018-02-08T21:54:37.349Z,144.35
2018-02-08T21:57:04.144Z,121.62
2018-02-08T21:59:35.077Z,125.62
2018-02-08T22:02:01.623Z,129.98
2018-02-08T22:04:28.064Z,118.47
2018-02-08T22:06:55.031Z,113.28
2018-02-08T22:09:22.490Z,110.47
2018-02-08T22:11:48.647Z,114.50
2018-02-08T22:14:15.347Z,113.00
2018-02-08T22:16:41.334Z,110.88
2018-02-08T22:19:08.491Z,115.28
2018-02-08T22:21:34.619Z,111.93
2018-02-08T22:24:04.656Z,104.05
2018-02-08T22:26:31.344Z,111.30
2018-02-08T22:28:57.355Z,119.70
2018-02-08T22:31:23.315Z,124.18
2018-02-08T22:33:50.232Z,117.33
2018-02-08T22:36:24.428Z,114.40
2018-02-08T22:38:51.017Z,116.68
2018-02-08T22:41:18.522Z,113.85
2018-02-08T22:43:44.480Z,117.30
2018-02-08T22:46:10.713Z,117.33
2018-02-08T22:48:37.708Z,109.05
2018-02-08T22:51:03.792Z,121.87
2018-02-08T22:53:30.575Z,119.97
2018-02-08T22:55:56.600Z,118.00
2018-02-08T22:58:22.709Z,107.00
2018-02-08T23:00:49.830Z,121.50
2018-02-08T23:03:16.653Z,119.30
2018-02-08T23:05:42.678Z,108.97
2018-02-08T23:08:09.802Z,113.45
2018-02-08T23:10:35.852Z,113.15
2018-02-08T23:13:05.272Z,113.53
2018-02-08T23:15:31.577Z,113.30
2018-02-08T23:17:59.314Z,114.05
2018-02-08T23:20:26.980Z,112.40
2018-02-08T23:22:52.998Z,116.35
2018-02-08T23:25:19.022Z,114.90
2018-02-08T23:27:45.053Z,121.70
2018-02-08T23:30:12.020Z,117.22
2018-02-08T23:32:38.032Z,126.60
2018-02-08T23:35:04.073Z,120.47
2018-02-08T23:37:30.876Z,118.20
2018-02-08T23:39:56.956Z,131.23
2018-02-08T23:42:23.182Z,108.45
2018-02-08T23:44:49.252Z,125.15
2018-02-08T23:47:15.271Z,124.93
2018-02-08T23:49:41.299Z,115.20
2018-02-08T23:52:07.263Z,117.57
2018-02-08T23:54:33.886Z,118.03
2018-02-08T23:57:00.730Z,121.30
2018-02-08T23:59:26.860Z,113.78
